sensor_id;sensor_type;location;lat;lon;timestamp;P1;durP1;ratioP1;P2;durP2;ratioP2
20695;SDS011;10507;52.754;13.040;2023-04-28T00:02:27;6.57;;;4.37;;
20695;SDS011;10507;52.754;13.040;2023-04-28T00:04:55;10.03;;;4.97;;
20695;SDS011;10507;52.754;13.040;2023-04-28T00:07:24;7.13;;;4.73;;
20695;SDS011;10507;52.754;13.040;2023-04-28T00:09:52;8.30;;;5.10;;
20695;SDS011;10507;52.754;13.040;2023-04-28T00:12:20;5.57;;;4.00;;
20695;SDS011;10507;52.754;13.040;2023-04-28T00:14:47;6.63;;;4.53;;
20695;SDS011;10507;52.754;13.040;2023-04-28T00:17:17;9.13;;;4.30;;
20695;SDS011;10507;52.754;13.040;2023-04-28T00:19:44;7.87;;;4.80;;
20695;SDS011;10507;52.754;13.040;2023-04-28T00:22:12;6.10;;;4.10;;
20695;SDS011;10507;52.754;13.040;2023-04-28T00:24:40;8.57;;;4.57;;
20695;SDS011;10507;52.754;13.040;2023-04-28T00:27:08;8.73;;;4.80;;
20695;SDS011;10507;52.754;13.040;2023-04-28T00:29:36;8.17;;;4.40;;
20695;SDS011;10507;52.754;13.040;2023-04-28T00:32:04;8.77;;;4.70;;
20695;SDS011;10507;52.754;13.040;2023-04-28T00:34:33;9.33;;;4.73;;
20695;SDS011;10507;52.754;13.040;2023-04-28T00:37:02;9.67;;;4.80;;
20695;SDS011;10507;52.754;13.040;2023-04-28T00:39:30;8.60;;;4.73;;
20695;SDS011;10507;52.754;13.040;2023-04-28T00:41:58;7.00;;;4.63;;
20695;SDS011;10507;52.754;13.040;2023-04-28T00:44:27;7.10;;;4.27;;
20695;SDS011;10507;52.754;13.040;2023-04-28T00:46:55;6.90;;;4.67;;
20695;SDS011;10507;52.754;13.040;2023-04-28T00:49:25;7.03;;;4.73;;
20695;SDS011;10507;52.754;13.040;2023-04-28T00:51:55;7.27;;;4.70;;
20695;SDS011;10507;52.754;13.040;2023-04-28T00:54:23;7.27;;;4.93;;
20695;SDS011;10507;52.754;13.040;2023-04-28T00:56:51;8.40;;;4.67;;
20695;SDS011;10507;52.754;13.040;2023-04-28T00:59:19;9.40;;;4.93;;
20695;SDS011;10507;52.754;13.040;2023-04-28T01:01:47;8.77;;;5.20;;
20695;SDS011;10507;52.754;13.040;2023-04-28T01:04:15;9.37;;;5.13;;
20695;SDS011;10507;52.754;13.040;2023-04-28T01:06:47;6.70;;;4.67;;
20695;SDS011;10507;52.754;13.040;2023-04-28T01:09:17;7.80;;;4.90;;
20695;SDS011;10507;52.754;13.040;2023-04-28T01:11:45;8.97;;;5.57;;
20695;SDS011;10507;52.754;13.040;2023-04-28T01:14:12;7.03;;;4.57;;
20695;SDS011;10507;52.754;13.040;2023-04-28T01:16:41;9.13;;;4.37;;
20695;SDS011;10507;52.754;13.040;2023-04-28T01:19:11;7.07;;;4.90;;
20695;SDS011;10507;52.754;13.040;2023-04-28T01:21:46;9.70;;;4.63;;
20695;SDS011;10507;52.754;13.040;2023-04-28T01:24:16;9.23;;;5.33;;
20695;SDS011;10507;52.754;13.040;2023-04-28T01:26:44;8.60;;;4.73;;
20695;SDS011;10507;52.754;13.040;2023-04-28T01:29:12;12.03;;;5.60;;
20695;SDS011;10507;52.754;13.040;2023-04-28T01:31:40;7.00;;;4.67;;
20695;SDS011;10507;52.754;13.040;2023-04-28T01:34:08;12.73;;;5.17;;
20695;SDS011;10507;52.754;13.040;2023-04-28T01:36:43;8.43;;;5.17;;
20695;SDS011;10507;52.754;13.040;2023-04-28T01:39:11;7.33;;;5.20;;
20695;SDS011;10507;52.754;13.040;2023-04-28T01:41:41;7.67;;;5.03;;
20695;SDS011;10507;52.754;13.040;2023-04-28T01:44:09;10.50;;;4.83;;
20695;SDS011;10507;52.754;13.040;2023-04-28T01:46:38;5.57;;;4.10;;
20695;SDS011;10507;52.754;13.040;2023-04-28T01:49:06;6.97;;;5.47;;
20695;SDS011;10507;52.754;13.040;2023-04-28T01:51:34;6.30;;;4.67;;
20695;SDS011;10507;52.754;13.040;2023-04-28T01:54:02;9.03;;;5.00;;
20695;SDS011;10507;52.754;13.040;2023-04-28T01:56:30;7.97;;;4.53;;
20695;SDS011;10507;52.754;13.040;2023-04-28T01:59:00;6.60;;;4.53;;
20695;SDS011;10507;52.754;13.040;2023-04-28T02:01:27;8.33;;;4.63;;
20695;SDS011;10507;52.754;13.040;2023-04-28T02:04:01;8.83;;;4.87;;
20695;SDS011;10507;52.754;13.040;2023-04-28T02:06:29;8.17;;;4.70;;
20695;SDS011;10507;52.754;13.040;2023-04-28T02:08:57;6.33;;;4.13;;
20695;SDS011;10507;52.754;13.040;2023-04-28T02:11:25;8.13;;;4.43;;
20695;SDS011;10507;52.754;13.040;2023-04-28T02:13:53;6.80;;;4.53;;
20695;SDS011;10507;52.754;13.040;2023-04-28T02:16:23;7.60;;;4.43;;
20695;SDS011;10507;52.754;13.040;2023-04-28T02:18:51;7.00;;;4.83;;
20695;SDS011;10507;52.754;13.040;2023-04-28T02:21:19;8.80;;;4.57;;
20695;SDS011;10507;52.754;13.040;2023-04-28T02:23:47;9.97;;;4.77;;
20695;SDS011;10507;52.754;13.040;2023-04-28T02:26:15;9.70;;;4.90;;
20695;SDS011;10507;52.754;13.040;2023-04-28T02:28:43;9.23;;;5.00;;
20695;SDS011;10507;52.754;13.040;2023-04-28T02:31:11;10.13;;;5.23;;
20695;SDS011;10507;52.754;13.040;2023-04-28T02:33:41;8.50;;;4.97;;
20695;SDS011;10507;52.754;13.040;2023-04-28T02:36:09;8.00;;;4.67;;
20695;SDS011;10507;52.754;13.040;2023-04-28T02:38:37;8.33;;;5.07;;
20695;SDS011;10507;52.754;13.040;2023-04-28T02:41:07;6.83;;;4.47;;
20695;SDS011;10507;52.754;13.040;2023-04-28T02:43:35;6.13;;;4.03;;
20695;SDS011;10507;52.754;13.040;2023-04-28T02:46:03;10.17;;;5.03;;
20695;SDS011;10507;52.754;13.040;2023-04-28T02:48:32;9.50;;;4.40;;
20695;SDS011;10507;52.754;13.040;2023-04-28T02:51:02;6.00;;;3.47;;
20695;SDS011;10507;52.754;13.040;2023-04-28T02:53:30;6.80;;;3.80;;
20695;SDS011;10507;52.754;13.040;2023-04-28T02:55:58;6.87;;;3.97;;
20695;SDS011;10507;52.754;13.040;2023-04-28T02:58:29;5.90;;;3.77;;
20695;SDS011;10507;52.754;13.040;2023-04-28T03:00:57;5.57;;;3.27;;
20695;SDS011;10507;52.754;13.040;2023-04-28T03:03:25;6.83;;;3.57;;
20695;SDS011;10507;52.754;13.040;2023-04-28T03:05:53;6.00;;;4.07;;
20695;SDS011;10507;52.754;13.040;2023-04-28T03:08:23;5.53;;;3.70;;
20695;SDS011;10507;52.754;13.040;2023-04-28T03:10:51;6.37;;;3.93;;
20695;SDS011;10507;52.754;13.040;2023-04-28T03:13:19;7.30;;;3.97;;
20695;SDS011;10507;52.754;13.040;2023-04-28T03:15:47;9.60;;;3.87;;
20695;SDS011;10507;52.754;13.040;2023-04-28T03:18:15;7.60;;;4.47;;
20695;SDS011;10507;52.754;13.040;2023-04-28T03:20:43;7.67;;;3.93;;
20695;SDS011;10507;52.754;13.040;2023-04-28T03:23:11;10.77;;;4.77;;
20695;SDS011;10507;52.754;13.040;2023-04-28T03:25:40;7.47;;;4.30;;
20695;SDS011;10507;52.754;13.040;2023-04-28T03:28:08;7.70;;;4.17;;
20695;SDS011;10507;52.754;13.040;2023-04-28T03:30:37;9.17;;;4.53;;
20695;SDS011;10507;52.754;13.040;2023-04-28T03:33:05;7.97;;;4.10;;
20695;SDS011;10507;52.754;13.040;2023-04-28T03:35:34;8.30;;;4.27;;
20695;SDS011;10507;52.754;13.040;2023-04-28T03:38:01;10.03;;;4.13;;
20695;SDS011;10507;52.754;13.040;2023-04-28T03:40:31;9.33;;;4.40;;
20695;SDS011;10507;52.754;13.040;2023-04-28T03:43:01;6.03;;;4.03;;
20695;SDS011;10507;52.754;13.040;2023-04-28T03:45:30;5.63;;;4.03;;
20695;SDS011;10507;52.754;13.040;2023-04-28T03:47:58;8.67;;;4.73;;
20695;SDS011;10507;52.754;13.040;2023-04-28T03:50:26;8.07;;;4.40;;
20695;SDS011;10507;52.754;13.040;2023-04-28T03:52:54;6.63;;;4.40;;
20695;SDS011;10507;52.754;13.040;2023-04-28T03:55:22;7.50;;;4.00;;
20695;SDS011;10507;52.754;13.040;2023-04-28T03:57:51;6.20;;;3.80;;
20695;SDS011;10507;52.754;13.040;2023-04-28T04:00:20;6.97;;;4.00;;
20695;SDS011;10507;52.754;13.040;2023-04-28T04:02:48;7.57;;;4.63;;
20695;SDS011;10507;52.754;13.040;2023-04-28T04:05:16;7.37;;;4.33;;
20695;SDS011;10507;52.754;13.040;2023-04-28T04:07:47;6.97;;;4.10;;
20695;SDS011;10507;52.754;13.040;2023-04-28T04:10:15;7.40;;;4.73;;
20695;SDS011;10507;52.754;13.040;2023-04-28T04:12:43;9.27;;;5.00;;
20695;SDS011;10507;52.754;13.040;2023-04-28T04:15:11;9.27;;;4.37;;
20695;SDS011;10507;52.754;13.040;2023-04-28T04:17:40;7.97;;;4.47;;
20695;SDS011;10507;52.754;13.040;2023-04-28T04:20:08;9.80;;;4.53;;
20695;SDS011;10507;52.754;13.040;2023-04-28T04:22:36;12.23;;;5.20;;
20695;SDS011;10507;52.754;13.040;2023-04-28T04:25:04;10.70;;;5.50;;
20695;SDS011;10507;52.754;13.040;2023-04-28T04:27:33;7.27;;;4.23;;
20695;SDS011;10507;52.754;13.040;2023-04-28T04:30:01;8.90;;;4.67;;
20695;SDS011;10507;52.754;13.040;2023-04-28T04:32:28;9.70;;;5.60;;
20695;SDS011;10507;52.754;13.040;2023-04-28T04:34:58;9.90;;;5.30;;
20695;SDS011;10507;52.754;13.040;2023-04-28T04:37:25;6.80;;;5.00;;
20695;SDS011;10507;52.754;13.040;2023-04-28T04:39:53;9.70;;;4.60;;
20695;SDS011;10507;52.754;13.040;2023-04-28T04:42:22;8.47;;;4.53;;
20695;SDS011;10507;52.754;13.040;2023-04-28T04:44:51;9.60;;;4.93;;
20695;SDS011;10507;52.754;13.040;2023-04-28T04:47:19;8.20;;;4.53;;
20695;SDS011;10507;52.754;13.040;2023-04-28T04:49:48;9.57;;;5.43;;
20695;SDS011;10507;52.754;13.040;2023-04-28T04:52:17;8.43;;;5.13;;
20695;SDS011;10507;52.754;13.040;2023-04-28T04:54:45;8.57;;;4.40;;
20695;SDS011;10507;52.754;13.040;2023-04-28T04:57:13;7.90;;;4.57;;
20695;SDS011;10507;52.754;13.040;2023-04-28T04:59:41;9.70;;;5.00;;
20695;SDS011;10507;52.754;13.040;2023-04-28T05:02:08;6.73;;;4.30;;
20695;SDS011;10507;52.754;13.040;2023-04-28T05:04:36;9.00;;;4.63;;
20695;SDS011;10507;52.754;13.040;2023-04-28T05:07:04;8.30;;;4.33;;
20695;SDS011;10507;52.754;13.040;2023-04-28T05:09:34;7.87;;;4.07;;
20695;SDS011;10507;52.754;13.040;2023-04-28T05:12:02;8.53;;;4.13;;
20695;SDS011;10507;52.754;13.040;2023-04-28T05:14:30;7.13;;;3.57;;
20695;SDS011;10507;52.754;13.040;2023-04-28T05:16:57;5.53;;;4.27;;
20695;SDS011;10507;52.754;13.040;2023-04-28T05:19:25;4.85;;;3.38;;
20695;SDS011;10507;52.754;13.040;2023-04-28T05:21:53;8.48;;;3.58;;
20695;SDS011;10507;52.754;13.040;2023-04-28T05:24:21;6.10;;;3.60;;
20695;SDS011;10507;52.754;13.040;2023-04-28T05:26:51;8.48;;;3.50;;
20695;SDS011;10507;52.754;13.040;2023-04-28T05:29:19;5.10;;;2.97;;
20695;SDS011;10507;52.754;13.040;2023-04-28T05:31:47;8.50;;;3.20;;
20695;SDS011;10507;52.754;13.040;2023-04-28T05:34:15;7.28;;;3.30;;
20695;SDS011;10507;52.754;13.040;2023-04-28T05:36:43;4.85;;;3.05;;
20695;SDS011;10507;52.754;13.040;2023-04-28T05:39:11;5.43;;;3.30;;
20695;SDS011;10507;52.754;13.040;2023-04-28T05:41:39;5.70;;;3.15;;
20695;SDS011;10507;52.754;13.040;2023-04-28T05:44:09;7.10;;;2.95;;
20695;SDS011;10507;52.754;13.040;2023-04-28T05:46:37;4.13;;;2.70;;
20695;SDS011;10507;52.754;13.040;2023-04-28T05:49:05;5.25;;;3.03;;
20695;SDS011;10507;52.754;13.040;2023-04-28T05:51:33;5.88;;;3.30;;
20695;SDS011;10507;52.754;13.040;2023-04-28T05:54:01;6.50;;;3.03;;
20695;SDS011;10507;52.754;13.040;2023-04-28T05:56:29;10.95;;;3.22;;
20695;SDS011;10507;52.754;13.040;2023-04-28T05:58:57;6.22;;;2.97;;
20695;SDS011;10507;52.754;13.040;2023-04-28T06:01:28;6.65;;;2.95;;
20695;SDS011;10507;52.754;13.040;2023-04-28T06:03:57;9.50;;;2.92;;
20695;SDS011;10507;52.754;13.040;2023-04-28T06:06:25;5.65;;;2.80;;
20695;SDS011;10507;52.754;13.040;2023-04-28T06:08:54;7.70;;;2.75;;
20695;SDS011;10507;52.754;13.040;2023-04-28T06:11:22;5.55;;;2.78;;
20695;SDS011;10507;52.754;13.040;2023-04-28T06:13:50;6.18;;;2.85;;
20695;SDS011;10507;52.754;13.040;2023-04-28T06:16:17;5.28;;;3.15;;
20695;SDS011;10507;52.754;13.040;2023-04-28T06:18:54;8.00;;;3.08;;
20695;SDS011;10507;52.754;13.040;2023-04-28T06:21:23;6.20;;;2.97;;
20695;SDS011;10507;52.754;13.040;2023-04-28T06:23:52;10.40;;;3.63;;
20695;SDS011;10507;52.754;13.040;2023-04-28T06:26:20;7.38;;;2.55;;
20695;SDS011;10507;52.754;13.040;2023-04-28T06:28:49;4.70;;;2.80;;
20695;SDS011;10507;52.754;13.040;2023-04-28T06:31:17;7.40;;;3.38;;
20695;SDS011;10507;52.754;13.040;2023-04-28T06:33:45;8.07;;;3.83;;
20695;SDS011;10507;52.754;13.040;2023-04-28T06:36:14;9.88;;;3.95;;
20695;SDS011;10507;52.754;13.040;2023-04-28T06:38:43;7.53;;;2.80;;
20695;SDS011;10507;52.754;13.040;2023-04-28T06:41:11;4.50;;;2.42;;
20695;SDS011;10507;52.754;13.040;2023-04-28T06:43:39;6.45;;;2.97;;
20695;SDS011;10507;52.754;13.040;2023-04-28T06:46:08;6.82;;;3.30;;
20695;SDS011;10507;52.754;13.040;2023-04-28T06:48:36;8.35;;;3.25;;
20695;SDS011;10507;52.754;13.040;2023-04-28T06:51:04;5.53;;;2.97;;
20695;SDS011;10507;52.754;13.040;2023-04-28T06:53:33;6.72;;;3.35;;
20695;SDS011;10507;52.754;13.040;2023-04-28T06:56:01;5.30;;;3.17;;
20695;SDS011;10507;52.754;13.040;2023-04-28T06:58:29;6.20;;;2.88;;
20695;SDS011;10507;52.754;13.040;2023-04-28T07:00:57;6.75;;;3.38;;
20695;SDS011;10507;52.754;13.040;2023-04-28T07:03:27;7.53;;;2.95;;
20695;SDS011;10507;52.754;13.040;2023-04-28T07:05:56;4.97;;;2.78;;
20695;SDS011;10507;52.754;13.040;2023-04-28T07:08:24;7.43;;;3.03;;
20695;SDS011;10507;52.754;13.040;2023-04-28T07:10:54;5.45;;;3.33;;
20695;SDS011;10507;52.754;13.040;2023-04-28T07:13:22;8.70;;;3.42;;
20695;SDS011;10507;52.754;13.040;2023-04-28T07:15:50;7.47;;;3.17;;
20695;SDS011;10507;52.754;13.040;2023-04-28T07:18:18;7.97;;;3.13;;
20695;SDS011;10507;52.754;13.040;2023-04-28T07:20:50;5.18;;;3.00;;
20695;SDS011;10507;52.754;13.040;2023-04-28T07:23:17;9.82;;;3.25;;
20695;SDS011;10507;52.754;13.040;2023-04-28T07:25:45;6.13;;;2.80;;
20695;SDS011;10507;52.754;13.040;2023-04-28T07:28:14;6.28;;;3.42;;
20695;SDS011;10507;52.754;13.040;2023-04-28T07:30:42;3.83;;;2.13;;
20695;SDS011;10507;52.754;13.040;2023-04-28T07:33:10;5.88;;;2.40;;
20695;SDS011;10507;52.754;13.040;2023-04-28T07:35:38;6.40;;;2.97;;
20695;SDS011;10507;52.754;13.040;2023-04-28T07:38:06;6.80;;;2.60;;
20695;SDS011;10507;52.754;13.040;2023-04-28T07:40:34;6.22;;;2.67;;
20695;SDS011;10507;52.754;13.040;2023-04-28T07:43:02;6.00;;;2.60;;
20695;SDS011;10507;52.754;13.040;2023-04-28T07:45:31;4.40;;;2.15;;
20695;SDS011;10507;52.754;13.040;2023-04-28T07:47:59;6.25;;;2.58;;
20695;SDS011;10507;52.754;13.040;2023-04-28T07:50:27;8.02;;;2.90;;
20695;SDS011;10507;52.754;13.040;2023-04-28T07:52:55;4.38;;;1.98;;
20695;SDS011;10507;52.754;13.040;2023-04-28T07:55:24;7.55;;;2.58;;
20695;SDS011;10507;52.754;13.040;2023-04-28T07:57:52;6.70;;;2.75;;
20695;SDS011;10507;52.754;13.040;2023-04-28T08:00:20;8.43;;;2.95;;
20695;SDS011;10507;52.754;13.040;2023-04-28T08:02:50;4.10;;;2.40;;
20695;SDS011;10507;52.754;13.040;2023-04-28T08:05:18;5.22;;;2.70;;
20695;SDS011;10507;52.754;13.040;2023-04-28T08:07:46;7.70;;;3.40;;
20695;SDS011;10507;52.754;13.040;2023-04-28T08:10:14;4.90;;;3.08;;
20695;SDS011;10507;52.754;13.040;2023-04-28T08:12:42;5.97;;;3.08;;
20695;SDS011;10507;52.754;13.040;2023-04-28T08:15:10;5.72;;;2.92;;
20695;SDS011;10507;52.754;13.040;2023-04-28T08:17:39;5.50;;;2.45;;
20695;SDS011;10507;52.754;13.040;2023-04-28T08:20:08;7.18;;;3.25;;
20695;SDS011;10507;52.754;13.040;2023-04-28T08:22:38;6.45;;;2.55;;
20695;SDS011;10507;52.754;13.040;2023-04-28T08:25:06;5.25;;;2.90;;
20695;SDS011;10507;52.754;13.040;2023-04-28T08:27:36;7.05;;;3.17;;
20695;SDS011;10507;52.754;13.040;2023-04-28T08:30:05;5.53;;;3.08;;
20695;SDS011;10507;52.754;13.040;2023-04-28T08:32:34;5.88;;;2.47;;
20695;SDS011;10507;52.754;13.040;2023-04-28T08:35:05;7.70;;;3.10;;
20695;SDS011;10507;52.754;13.040;2023-04-28T08:37:35;7.82;;;2.80;;
20695;SDS011;10507;52.754;13.040;2023-04-28T08:40:03;5.88;;;3.28;;
20695;SDS011;10507;52.754;13.040;2023-04-28T08:42:36;4.82;;;2.42;;
20695;SDS011;10507;52.754;13.040;2023-04-28T08:45:07;5.95;;;3.03;;
20695;SDS011;10507;52.754;13.040;2023-04-28T08:47:41;6.68;;;2.78;;
20695;SDS011;10507;52.754;13.040;2023-04-28T08:50:18;6.22;;;2.72;;
20695;SDS011;10507;52.754;13.040;2023-04-28T08:52:49;5.43;;;3.10;;
20695;SDS011;10507;52.754;13.040;2023-04-28T08:55:19;5.53;;;2.88;;
20695;SDS011;10507;52.754;13.040;2023-04-28T08:57:48;6.38;;;3.58;;
20695;SDS011;10507;52.754;13.040;2023-04-28T09:00:17;8.88;;;3.42;;
20695;SDS011;10507;52.754;13.040;2023-04-28T09:02:45;8.77;;;3.33;;
20695;SDS011;10507;52.754;13.040;2023-04-28T09:05:13;6.35;;;3.47;;
20695;SDS011;10507;52.754;13.040;2023-04-28T09:07:44;7.88;;;3.08;;
20695;SDS011;10507;52.754;13.040;2023-04-28T09:10:16;5.93;;;3.63;;
20695;SDS011;10507;52.754;13.040;2023-04-28T09:12:47;10.95;;;3.53;;
20695;SDS011;10507;52.754;13.040;2023-04-28T09:15:25;8.45;;;3.88;;
20695;SDS011;10507;52.754;13.040;2023-04-28T09:17:59;7.82;;;4.00;;
20695;SDS011;10507;52.754;13.040;2023-04-28T09:20:28;5.97;;;3.40;;
20695;SDS011;10507;52.754;13.040;2023-04-28T09:23:11;7.75;;;3.22;;
20695;SDS011;10507;52.754;13.040;2023-04-28T09:25:41;8.10;;;3.20;;
20695;SDS011;10507;52.754;13.040;2023-04-28T09:28:24;7.82;;;4.10;;
20695;SDS011;10507;52.754;13.040;2023-04-28T09:30:55;7.28;;;3.97;;
20695;SDS011;10507;52.754;13.040;2023-04-28T09:33:22;7.07;;;3.83;;
20695;SDS011;10507;52.754;13.040;2023-04-28T09:35:51;8.93;;;4.10;;
20695;SDS011;10507;52.754;13.040;2023-04-28T09:38:20;8.90;;;3.22;;
20695;SDS011;10507;52.754;13.040;2023-04-28T09:40:51;7.10;;;3.78;;
20695;SDS011;10507;52.754;13.040;2023-04-28T09:43:27;10.32;;;3.60;;
20695;SDS011;10507;52.754;13.040;2023-04-28T09:46:00;6.35;;;3.45;;
20695;SDS011;10507;52.754;13.040;2023-04-28T09:48:31;7.45;;;3.95;;
20695;SDS011;10507;52.754;13.040;2023-04-28T09:51:03;8.15;;;4.15;;
20695;SDS011;10507;52.754;13.040;2023-04-28T09:53:33;8.65;;;4.53;;
20695;SDS011;10507;52.754;13.040;2023-04-28T09:56:03;7.47;;;3.97;;
20695;SDS011;10507;52.754;13.040;2023-04-28T09:58:31;8.23;;;5.03;;
20695;SDS011;10507;52.754;13.040;2023-04-28T10:01:01;9.77;;;3.53;;
20695;SDS011;10507;52.754;13.040;2023-04-28T10:03:29;9.73;;;4.68;;
20695;SDS011;10507;52.754;13.040;2023-04-28T10:05:58;8.02;;;4.55;;
20695;SDS011;10507;52.754;13.040;2023-04-28T10:08:29;9.32;;;4.65;;
20695;SDS011;10507;52.754;13.040;2023-04-28T10:10:57;11.13;;;5.07;;
20695;SDS011;10507;52.754;13.040;2023-04-28T10:13:27;10.07;;;4.30;;
20695;SDS011;10507;52.754;13.040;2023-04-28T10:15:55;6.82;;;3.72;;
20695;SDS011;10507;52.754;13.040;2023-04-28T10:18:24;6.43;;;3.90;;
20695;SDS011;10507;52.754;13.040;2023-04-28T10:20:52;7.65;;;3.90;;
20695;SDS011;10507;52.754;13.040;2023-04-28T10:23:28;7.45;;;4.30;;
20695;SDS011;10507;52.754;13.040;2023-04-28T10:26:08;8.75;;;3.92;;
20695;SDS011;10507;52.754;13.040;2023-04-28T10:28:44;9.60;;;4.45;;
20695;SDS011;10507;52.754;13.040;2023-04-28T10:31:13;7.78;;;4.80;;
20695;SDS011;10507;52.754;13.040;2023-04-28T10:33:43;13.35;;;5.40;;
20695;SDS011;10507;52.754;13.040;2023-04-28T10:36:17;8.50;;;4.35;;
20695;SDS011;10507;52.754;13.040;2023-04-28T10:39:15;7.30;;;4.40;;
20695;SDS011;10507;52.754;13.040;2023-04-28T10:41:43;9.75;;;4.63;;
20695;SDS011;10507;52.754;13.040;2023-04-28T10:47:09;12.95;;;4.70;;
20695;SDS011;10507;52.754;13.040;2023-04-28T10:52:46;9.45;;;5.35;;
20695;SDS011;10507;52.754;13.040;2023-04-28T10:55:30;9.70;;;4.95;;
20695;SDS011;10507;52.754;13.040;2023-04-28T11:03:56;7.45;;;4.75;;
20695;SDS011;10507;52.754;13.040;2023-04-28T11:06:30;9.50;;;5.30;;
20695;SDS011;10507;52.754;13.040;2023-04-28T11:09:00;7.97;;;5.43;;
20695;SDS011;10507;52.754;13.040;2023-04-28T11:11:29;10.38;;;5.35;;
20695;SDS011;10507;52.754;13.040;2023-04-28T11:17:01;8.02;;;5.57;;
20695;SDS011;10507;52.754;13.040;2023-04-28T11:19:31;8.55;;;5.15;;
20695;SDS011;10507;52.754;13.040;2023-04-28T11:22:01;8.20;;;4.82;;
20695;SDS011;10507;52.754;13.040;2023-04-28T11:24:35;8.30;;;4.70;;
20695;SDS011;10507;52.754;13.040;2023-04-28T11:27:03;8.75;;;4.95;;
20695;SDS011;10507;52.754;13.040;2023-04-28T11:29:31;8.32;;;5.03;;
20695;SDS011;10507;52.754;13.040;2023-04-28T11:32:02;8.32;;;5.65;;
20695;SDS011;10507;52.754;13.040;2023-04-28T11:34:30;11.73;;;6.18;;
20695;SDS011;10507;52.754;13.040;2023-04-28T11:36:58;7.28;;;5.45;;
20695;SDS011;10507;52.754;13.040;2023-04-28T11:39:27;10.30;;;5.18;;
20695;SDS011;10507;52.754;13.040;2023-04-28T11:41:56;12.32;;;5.68;;
20695;SDS011;10507;52.754;13.040;2023-04-28T11:44:25;8.52;;;4.57;;
20695;SDS011;10507;52.754;13.040;2023-04-28T11:46:54;8.65;;;5.07;;
20695;SDS011;10507;52.754;13.040;2023-04-28T11:49:28;6.68;;;3.53;;
20695;SDS011;10507;52.754;13.040;2023-04-28T11:52:03;10.23;;;4.35;;
20695;SDS011;10507;52.754;13.040;2023-04-28T11:54:39;8.48;;;4.82;;
20695;SDS011;10507;52.754;13.040;2023-04-28T11:57:15;11.73;;;4.88;;
20695;SDS011;10507;52.754;13.040;2023-04-28T11:59:43;8.98;;;4.93;;
20695;SDS011;10507;52.754;13.040;2023-04-28T12:02:12;8.60;;;4.28;;
20695;SDS011;10507;52.754;13.040;2023-04-28T12:04:42;7.07;;;3.90;;
20695;SDS011;10507;52.754;13.040;2023-04-28T12:07:11;9.05;;;4.80;;
20695;SDS011;10507;52.754;13.040;2023-04-28T12:09:40;7.88;;;4.90;;
20695;SDS011;10507;52.754;13.040;2023-04-28T12:12:11;9.20;;;5.10;;
20695;SDS011;10507;52.754;13.040;2023-04-28T12:14:52;9.52;;;5.05;;
20695;SDS011;10507;52.754;13.040;2023-04-28T12:17:22;9.73;;;4.57;;
20695;SDS011;10507;52.754;13.040;2023-04-28T12:19:52;9.93;;;5.25;;
20695;SDS011;10507;52.754;13.040;2023-04-28T12:22:20;7.22;;;4.35;;
20695;SDS011;10507;52.754;13.040;2023-04-28T12:25:01;10.90;;;5.35;;
20695;SDS011;10507;52.754;13.040;2023-04-28T12:27:29;8.77;;;4.57;;
20695;SDS011;10507;52.754;13.040;2023-04-28T12:29:57;10.52;;;5.30;;
20695;SDS011;10507;52.754;13.040;2023-04-28T12:32:37;9.25;;;4.50;;
20695;SDS011;10507;52.754;13.040;2023-04-28T12:35:07;9.38;;;5.45;;
20695;SDS011;10507;52.754;13.040;2023-04-28T12:37:36;12.20;;;5.00;;
20695;SDS011;10507;52.754;13.040;2023-04-28T12:40:06;10.65;;;5.20;;
20695;SDS011;10507;52.754;13.040;2023-04-28T12:42:35;10.30;;;5.53;;
20695;SDS011;10507;52.754;13.040;2023-04-28T12:45:04;10.85;;;5.10;;
20695;SDS011;10507;52.754;13.040;2023-04-28T12:47:34;9.60;;;4.72;;
20695;SDS011;10507;52.754;13.040;2023-04-28T12:50:03;13.38;;;4.97;;
20695;SDS011;10507;52.754;13.040;2023-04-28T12:52:33;8.25;;;4.93;;
20695;SDS011;10507;52.754;13.040;2023-04-28T12:55:02;7.43;;;4.45;;
20695;SDS011;10507;52.754;13.040;2023-04-28T12:57:31;8.18;;;4.72;;
20695;SDS011;10507;52.754;13.040;2023-04-28T13:00:05;8.88;;;4.88;;
20695;SDS011;10507;52.754;13.040;2023-04-28T13:02:34;8.05;;;4.90;;
20695;SDS011;10507;52.754;13.040;2023-04-28T13:05:02;11.05;;;4.70;;
20695;SDS011;10507;52.754;13.040;2023-04-28T13:07:30;8.07;;;4.43;;
20695;SDS011;10507;52.754;13.040;2023-04-28T13:10:05;8.18;;;4.82;;
20695;SDS011;10507;52.754;13.040;2023-04-28T13:12:34;7.68;;;5.07;;
20695;SDS011;10507;52.754;13.040;2023-04-28T13:15:03;7.22;;;4.47;;
20695;SDS011;10507;52.754;13.040;2023-04-28T13:17:31;10.13;;;5.30;;
20695;SDS011;10507;52.754;13.040;2023-04-28T13:20:00;9.10;;;4.80;;
20695;SDS011;10507;52.754;13.040;2023-04-28T13:22:29;9.88;;;5.50;;
20695;SDS011;10507;52.754;13.040;2023-04-28T13:24:58;7.80;;;4.07;;
20695;SDS011;10507;52.754;13.040;2023-04-28T13:27:26;11.68;;;4.90;;
20695;SDS011;10507;52.754;13.040;2023-04-28T13:29:55;10.07;;;4.80;;
20695;SDS011;10507;52.754;13.040;2023-04-28T13:32:24;9.45;;;5.20;;
20695;SDS011;10507;52.754;13.040;2023-04-28T13:34:53;9.57;;;5.35;;
20695;SDS011;10507;52.754;13.040;2023-04-28T13:37:21;8.95;;;4.40;;
20695;SDS011;10507;52.754;13.040;2023-04-28T13:39:48;8.90;;;4.85;;
20695;SDS011;10507;52.754;13.040;2023-04-28T13:42:18;8.48;;;4.35;;
20695;SDS011;10507;52.754;13.040;2023-04-28T13:44:45;10.50;;;4.88;;
20695;SDS011;10507;52.754;13.040;2023-04-28T13:47:14;9.57;;;5.10;;
20695;SDS011;10507;52.754;13.040;2023-04-28T13:49:42;10.50;;;5.47;;
20695;SDS011;10507;52.754;13.040;2023-04-28T13:52:10;10.27;;;4.90;;
20695;SDS011;10507;52.754;13.040;2023-04-28T13:54:37;13.77;;;5.75;;
20695;SDS011;10507;52.754;13.040;2023-04-28T13:57:06;9.13;;;5.13;;
20695;SDS011;10507;52.754;13.040;2023-04-28T13:59:35;9.90;;;5.00;;
20695;SDS011;10507;52.754;13.040;2023-04-28T14:02:03;7.65;;;4.50;;
20695;SDS011;10507;52.754;13.040;2023-04-28T14:04:31;10.15;;;4.50;;
20695;SDS011;10507;52.754;13.040;2023-04-28T14:06:59;9.65;;;4.45;;
20695;SDS011;10507;52.754;13.040;2023-04-28T14:09:27;8.88;;;5.07;;
20695;SDS011;10507;52.754;13.040;2023-04-28T14:11:55;8.70;;;4.47;;
20695;SDS011;10507;52.754;13.040;2023-04-28T14:14:27;6.90;;;4.82;;
20695;SDS011;10507;52.754;13.040;2023-04-28T14:16:56;9.10;;;4.22;;
20695;SDS011;10507;52.754;13.040;2023-04-28T14:19:24;7.47;;;4.25;;
20695;SDS011;10507;52.754;13.040;2023-04-28T14:21:52;11.60;;;4.97;;
20695;SDS011;10507;52.754;13.040;2023-04-28T14:24:20;7.40;;;4.50;;
20695;SDS011;10507;52.754;13.040;2023-04-28T14:26:47;8.02;;;4.88;;
20695;SDS011;10507;52.754;13.040;2023-04-28T14:29:16;8.82;;;5.40;;
20695;SDS011;10507;52.754;13.040;2023-04-28T14:31:43;8.88;;;4.57;;
20695;SDS011;10507;52.754;13.040;2023-04-28T14:34:13;9.55;;;5.20;;
20695;SDS011;10507;52.754;13.040;2023-04-28T14:36:41;7.28;;;4.72;;
20695;SDS011;10507;52.754;13.040;2023-04-28T14:39:08;8.68;;;5.00;;
20695;SDS011;10507;52.754;13.040;2023-04-28T14:41:37;10.98;;;4.68;;
20695;SDS011;10507;52.754;13.040;2023-04-28T14:44:04;11.23;;;4.60;;
20695;SDS011;10507;52.754;13.040;2023-04-28T14:46:33;10.70;;;4.35;;
20695;SDS011;10507;52.754;13.040;2023-04-28T14:49:02;6.25;;;4.13;;
20695;SDS011;10507;52.754;13.040;2023-04-28T14:51:32;10.57;;;4.25;;
20695;SDS011;10507;52.754;13.040;2023-04-28T14:54:01;7.13;;;4.10;;
20695;SDS011;10507;52.754;13.040;2023-04-28T14:56:29;8.35;;;4.32;;
20695;SDS011;10507;52.754;13.040;2023-04-28T14:58:59;6.75;;;3.50;;
20695;SDS011;10507;52.754;13.040;2023-04-28T15:01:27;10.88;;;4.70;;